Time;durP1;ratioP1;P1;durP2;ratioP2;P2;SDS_P1;SDS_P2;PMS_P1;PMS_P2;Temp;Humidity;BMP_temperature;BMP_pressure;BME280_temperature;BME280_humidity;BME280_pressure;Samples;Min_cycle;Max_cycle;Signal;HPM_P1;HPM_P2
2022/12/20 00:01:47;;;;;;;1.58;1.08;;;1.40;99.90;;;1.18;100.00;100926.50;5002441;28;20258;-67
2022/12/20 00:04:14;;;;;;;0.35;0.35;;;1.60;99.90;;;1.18;100.00;100924.78;5002940;28;20291;-67
2022/12/20 00:06:41;;;;;;;0.20;0.20;;;1.70;99.90;;;1.20;100.00;100917.06;5013071;28;20309;-68
2022/12/20 00:09:10;;;;;;;0.10;0.10;;;1.40;99.90;;;1.25;100.00;100910.38;5001754;28;20601;-67
2022/12/20 00:11:40;;;;;;;0.40;0.40;;;1.50;99.90;;;1.26;100.00;100920.00;5002560;28;20251;-67
2022/12/20 00:14:08;;;;;;;0.10;0.10;;;1.50;99.90;;;1.32;100.00;100912.53;4993758;28;20227;-68
2022/12/20 00:16:36;;;;;;;0.10;0.10;;;1.50;99.90;;;1.32;100.00;100911.63;5000806;28;20711;-67
2022/12/20 00:19:05;;;;;;;0.17;0.17;;;1.60;99.90;;;1.36;100.00;100921.41;5007394;28;20230;-67
2022/12/20 00:21:34;;;;;;;0.10;0.10;;;1.50;99.90;;;1.40;100.00;100918.16;4999090;28;20230;-67
2022/12/20 00:24:03;;;;;;;0.10;0.10;;;1.80;99.90;;;1.40;100.00;100915.53;4999574;28;20284;-67
2022/12/20 00:26:33;;;;;;;0.20;0.20;;;1.60;99.90;;;1.37;100.00;100905.84;5005646;28;20223;-67
2022/12/20 00:29:00;;;;;;;0.22;0.22;;;2.40;99.90;;;1.36;100.00;100904.06;4997967;28;20224;-67
2022/12/20 00:31:29;;;;;;;0.38;0.38;;;1.60;99.90;;;1.36;100.00;100900.56;5019567;28;20223;-67
2022/12/20 00:33:59;;;;;;;0.30;0.30;;;1.50;99.90;;;1.33;100.00;100890.88;5004598;28;20330;-67
2022/12/20 00:36:29;;;;;;;0.47;0.47;;;1.60;99.90;;;1.31;100.00;100899.44;5001712;28;20298;-67
2022/12/20 00:38:57;;;;;;;0.10;0.10;;;1.50;99.90;;;1.28;100.00;100895.81;5021624;28;20243;-67
2022/12/20 00:41:28;;;;;;;0.20;0.20;;;1.50;99.90;;;1.34;100.00;100903.09;5003963;28;20289;-67
2022/12/20 00:43:55;;;;;;;1.10;1.10;;;1.60;99.90;;;1.31;100.00;100909.84;5019934;28;20381;-67
2022/12/20 00:46:23;;;;;;;0.13;0.13;;;1.50;99.90;;;1.28;100.00;100906.22;5022526;28;20310;-67
2022/12/20 00:48:52;;;;;;;0.32;0.32;;;1.60;99.90;;;1.27;100.00;100906.16;5003199;28;21860;-67
2022/12/20 00:51:24;;;;;;;0.10;0.10;;;1.50;99.90;;;1.26;100.00;100906.97;5006224;28;20243;-68
2022/12/20 00:53:51;;;;;;;0.15;0.15;;;1.50;99.90;;;1.23;100.00;100896.38;5003686;28;20296;-67
2022/12/20 00:56:19;;;;;;;0.30;0.30;;;1.50;99.90;;;1.19;100.00;100899.63;5022747;28;20590;-67
2022/12/20 00:58:47;;;;;;;0.10;0.10;;;1.40;99.90;;;1.17;100.00;100893.44;5017099;28;20239;-67
2022/12/20 01:01:23;;;;;;;0.10;0.10;;;1.40;99.90;;;1.19;100.00;100895.31;5021862;28;20243;-67
2022/12/20 01:03:51;;;;;;;0.15;0.15;;;1.40;99.90;;;1.21;100.00;100884.97;5017170;28;20249;-67
2022/12/20 01:06:19;;;;;;;1.23;0.68;;;1.40;99.90;;;1.20;100.00;100891.91;5008351;28;20299;-67
2022/12/20 01:08:46;;;;;;;0.20;0.20;;;1.40;99.90;;;1.24;100.00;100898.16;5038429;28;20239;-67
2022/12/20 01:11:18;;;;;;;0.10;0.10;;;1.50;99.90;;;1.31;100.00;100907.25;5003526;28;20238;-67
2022/12/20 01:13:49;;;;;;;0.38;0.38;;;1.60;99.90;;;1.32;100.00;100903.81;5004082;28;20271;-67
2022/12/20 01:16:27;;;;;;;15.60;0.90;;;1.60;99.90;;;1.37;100.00;100908.47;5003791;28;20228;-67
2022/12/20 01:18:54;;;;;;;0.15;0.15;;;1.60;99.90;;;1.42;100.00;100912.22;5007889;28;20307;-67
2022/12/20 01:21:25;;;;;;;0.40;0.40;;;1.60;99.90;;;1.47;100.00;100910.75;4979510;28;20289;-67
2022/12/20 01:23:52;;;;;;;0.10;0.10;;;1.70;99.90;;;1.49;100.00;100901.28;4984172;28;20258;-67
2022/12/20 01:26:22;;;;;;;0.10;0.10;;;1.80;99.90;;;1.56;100.00;100905.13;5004347;28;20290;-67
2022/12/20 01:28:54;;;;;;;0.10;0.10;;;1.80;99.90;;;1.56;100.00;100906.00;4982522;28;20235;-66
2022/12/20 01:31:21;;;;;;;0.15;0.15;;;1.80;99.90;;;1.62;100.00;100897.63;4979945;28;20270;-66
2022/12/20 01:33:50;;;;;;;0.20;0.20;;;1.80;99.90;;;1.65;100.00;100902.09;4993966;28;20235;-67
2022/12/20 01:36:24;;;;;;;0.13;0.13;;;2.00;99.90;;;1.68;100.00;100897.03;5003633;28;20314;-67
2022/12/20 01:38:59;;;;;;;0.47;0.40;;;1.90;99.90;;;1.59;100.00;100892.25;5013531;28;20304;-66
2022/12/20 01:41:29;;;;;;;1.58;1.48;;;1.90;99.90;;;1.68;100.00;100890.09;4986589;28;20266;-66
2022/12/20 01:44:00;;;;;;;0.17;0.17;;;1.90;99.90;;;1.69;100.00;100886.69;4985972;28;20306;-66
2022/12/20 01:46:35;;;;;;;0.22;0.22;;;1.90;99.90;;;1.70;100.00;100887.59;4987563;28;20293;-67
2022/12/20 01:49:21;;;;;;;0.20;0.20;;;1.90;99.90;;;1.68;100.00;100884.91;4992451;28;20321;-66
2022/12/20 01:52:03;;;;;;;0.70;0.70;;;1.90;99.90;;;1.66;100.00;100883.91;5009075;28;20321;-66
2022/12/20 01:54:42;;;;;;;0.30;0.30;;;1.90;99.90;;;1.66;100.00;100881.31;5009713;28;20250;-67
2022/12/20 01:57:26;;;;;;;0.20;0.20;;;1.90;99.90;;;1.66;100.00;100888.25;5027253;28;20233;-67
2022/12/20 01:59:54;;;;;;;0.57;0.57;;;1.90;99.90;;;1.65;100.00;100882.13;5027780;28;20285;-67
2022/12/20 02:02:22;;;;;;;0.15;0.15;;;1.90;99.90;;;1.69;100.00;100889.28;4994330;28;20341;-66
2022/12/20 02:04:50;;;;;;;1.40;1.30;;;2.00;99.90;;;1.69;100.00;100893.63;5005487;28;20228;-67
2022/12/20 02:07:25;;;;;;;0.88;0.88;;;1.90;99.90;;;1.74;100.00;100884.31;4986016;28;20310;-66
2022/12/20 02:09:55;;;;;;;0.10;0.10;;;1.90;99.90;;;1.75;100.00;100873.97;4986285;28;20254;-66
2022/12/20 02:12:26;;;;;;;1.55;1.10;;;2.00;99.90;;;1.74;100.00;100879.09;4992070;28;20243;-67
2022/12/20 02:15:34;;;;;;;0.20;0.20;;;2.00;99.90;;;1.79;100.00;100881.13;4991704;28;20232;-67
2022/12/20 02:18:34;;;;;;;0.70;0.70;;;2.00;99.90;;;1.82;100.00;100869.97;4960831;28;20247;-67
2022/12/20 02:21:40;;;;;;;0.63;0.63;;;2.00;99.90;;;1.83;100.00;100856.09;5006366;28;20246;-67
2022/12/20 02:24:30;;;;;;;0.20;0.20;;;2.10;99.90;;;1.84;100.00;100837.91;4988367;28;20325;-66
2022/12/20 02:27:29;;;;;;;0.20;0.20;;;2.10;99.90;;;1.88;100.00;100852.91;4998286;28;20255;-67
2022/12/20 02:30:10;;;;;;;0.47;0.47;;;2.10;99.90;;;1.83;100.00;100843.06;4997077;28;20733;-66
2022/12/20 02:33:03;;;;;;;0.20;0.20;;;2.10;99.90;;;1.83;100.00;100837.84;5000327;28;20240;-66
2022/12/20 02:35:35;;;;;;;0.45;0.45;;;2.00;99.90;;;1.80;100.00;100830.75;4981448;28;20235;-66
2022/12/20 02:38:24;;;;;;;0.13;0.13;;;2.20;99.90;;;1.79;100.00;100831.59;4979951;28;20225;-67
2022/12/20 02:40:58;;;;;;;0.10;0.10;;;2.00;99.90;;;1.80;100.00;100840.31;4982614;28;20239;-66
2022/12/20 02:46:14;;;;;;;0.20;0.20;;;2.00;99.90;;;1.79;100.00;100839.41;5007745;28;20285;-67
2022/12/20 02:48:42;;;;;;;0.70;0.70;;;2.10;99.90;;;1.83;100.00;100841.34;4979421;28;20232;-67
2022/12/20 02:51:10;;;;;;;0.10;0.10;;;2.10;99.90;;;1.82;100.00;100838.66;4970958;28;20305;-67
2022/12/20 02:53:39;;;;;;;0.10;0.10;;;2.10;99.90;;;1.85;100.00;100844.94;4989573;28;20246;-66
2022/12/20 02:56:25;;;;;;;0.20;0.20;;;2.20;99.90;;;1.89;100.00;100836.44;5013437;28;20231;-66
2022/12/20 02:59:10;;;;;;;0.28;0.28;;;2.10;99.90;;;1.92;100.00;100840.91;5011556;28;20257;-66
2022/12/20 03:01:47;;;;;;;0.10;0.10;;;2.20;99.90;;;2.01;100.00;100832.66;5011755;28;20246;-66
2022/12/20 03:04:16;;;;;;;0.80;0.80;;;2.20;99.90;;;2.03;100.00;100824.06;4996110;28;20241;-66
2022/12/20 03:07:09;;;;;;;0.30;0.30;;;2.20;99.90;;;2.06;100.00;100819.00;4997978;28;20241;-67
2022/12/20 03:09:40;;;;;;;1.85;1.70;;;2.30;99.90;;;2.09;100.00;100819.16;5009941;28;20263;-67
2022/12/20 03:12:13;;;;;;;0.22;0.22;;;2.30;99.90;;;2.12;100.00;100821.03;5023091;28;20235;-67
2022/12/20 03:14:40;;;;;;;0.75;0.75;;;2.40;99.90;;;2.14;100.00;100822.00;5011141;28;20237;-66
2022/12/20 03:17:08;;;;;;;0.10;0.10;;;2.40;99.90;;;2.19;100.00;100815.28;4993978;28;20255;-66
2022/12/20 03:19:35;;;;;;;0.20;0.20;;;2.50;99.90;;;2.27;100.00;100826.09;5002747;28;20599;-67
2022/12/20 03:22:02;;;;;;;0.20;0.20;;;2.50;99.90;;;2.29;100.00;100824.44;5016907;28;20258;-66
2022/12/20 03:24:31;;;;;;;1.02;0.57;;;2.50;99.90;;;2.33;100.00;100826.38;5003006;28;20253;-67
2022/12/20 03:26:58;;;;;;;0.10;0.10;;;2.50;99.90;;;2.34;100.00;100812.53;5002572;28;20239;-66
2022/12/20 03:29:26;;;;;;;0.08;0.08;;;2.60;99.90;;;2.37;100.00;100817.88;5017738;28;20308;-66
2022/12/20 03:31:53;;;;;;;0.52;0.52;;;2.60;99.90;;;2.37;100.00;100813.56;5017220;28;20235;-66
2022/12/20 03:34:20;;;;;;;0.10;0.10;;;2.60;99.90;;;2.36;100.00;100811.78;5003904;28;20291;-67
2022/12/20 03:36:47;;;;;;;0.10;0.10;;;2.60;99.90;;;2.41;100.00;100801.53;5008816;28;20312;-66
2022/12/20 03:39:14;;;;;;;0.30;0.30;;;2.60;99.90;;;2.38;100.00;100806.63;4995820;28;20309;-67
2022/12/20 03:41:41;;;;;;;0.10;0.10;;;2.60;99.90;;;2.37;100.00;100800.50;5000538;28;20255;-67
2022/12/20 03:44:09;;;;;;;0.32;0.32;;;2.70;99.90;;;2.35;100.00;100806.47;5002544;28;20231;-66
2022/12/20 03:46:36;;;;;;;0.10;0.10;;;2.60;99.90;;;2.33;100.00;100795.97;5006807;28;20316;-66
2022/12/20 03:49:03;;;;;;;0.10;0.10;;;2.60;99.90;;;2.28;100.00;100793.97;5000681;28;20323;-67
2022/12/20 03:51:30;;;;;;;0.10;0.10;;;2.50;99.90;;;2.24;100.00;100796.41;5000242;28;20235;-67
2022/12/20 03:53:57;;;;;;;0.65;0.65;;;2.50;99.90;;;2.23;100.00;100793.75;5016703;28;20265;-67
2022/12/20 03:56:24;;;;;;;0.20;0.20;;;2.50;99.90;;;2.27;100.00;100811.34;5027366;28;20249;-66
2022/12/20 03:58:51;;;;;;;0.20;0.20;;;2.50;99.90;;;2.28;100.00;100800.06;5020011;28;20314;-67
2022/12/20 04:01:23;;;;;;;0.50;0.50;;;2.50;99.90;;;2.37;100.00;100803.13;5024868;28;20265;-66
2022/12/20 04:03:52;;;;;;;0.10;0.10;;;2.50;99.90;;;2.44;100.00;100805.19;4997110;28;20262;-66
2022/12/20 04:06:22;;;;;;;0.10;0.10;;;2.60;99.90;;;2.52;100.00;100811.69;4988688;28;20239;-67
2022/12/20 04:08:49;;;;;;;0.10;0.10;;;2.70;99.90;;;2.54;100.00;100804.81;5000084;28;20239;-66
2022/12/20 04:11:22;;;;;;;0.15;0.15;;;2.40;99.90;;;2.58;100.00;100791.06;4990998;28;20239;-66
2022/12/20 04:13:59;;;;;;;0.10;0.10;;;2.80;99.90;;;2.60;100.00;100799.00;4970040;28;20234;-66
2022/12/20 04:16:32;;;;;;;2.55;1.20;;;2.80;99.90;;;2.63;100.00;100799.16;4994171;28;20226;-65
2022/12/20 04:19:00;;;;;;;0.10;0.10;;;2.80;99.90;;;2.59;100.00;100786.75;4999478;28;20296;-66
2022/12/20 04:21:31;;;;;;;0.30;0.30;;;2.80;99.90;;;2.58;100.00;100795.41;4996811;28;20227;-66
2022/12/20 04:24:00;;;;;;;0.15;0.15;;;2.80;99.90;;;2.56;100.00;100791.81;4993703;28;20247;-67
2022/12/20 04:26:27;;;;;;;0.10;0.10;;;2.80;99.90;;;2.58;100.00;100806.75;4982672;28;20320;-66
2022/12/20 04:28:54;;;;;;;0.17;0.17;;;2.70;99.90;;;2.52;100.00;100793.41;5008754;28;20730;-66
2022/12/20 04:31:21;;;;;;;0.10;0.10;;;2.80;99.90;;;2.58;100.00;100804.13;5025884;28;20323;-66
2022/12/20 04:33:50;;;;;;;0.10;0.10;;;2.80;99.90;;;2.61;100.00;100805.13;5006586;28;20250;-66
2022/12/20 04:36:18;;;;;;;0.22;0.22;;;2.80;99.90;;;2.64;100.00;100793.09;5015088;28;20231;-66
2022/12/20 04:38:45;;;;;;;0.10;0.10;;;2.90;99.90;;;2.62;100.00;100788.63;5027037;28;20235;-66
2022/12/20 04:41:21;;;;;;;0.10;0.10;;;2.80;99.90;;;2.59;100.00;100791.97;5029668;28;20312;-66
2022/12/20 04:43:55;;;;;;;0.32;0.32;;;2.80;99.90;;;2.61;100.00;100790.34;5010511;28;20235;-66
2022/12/20 04:46:24;;;;;;;0.10;0.10;;;2.80;99.90;;;2.55;100.00;100784.81;5009293;28;20315;-66
2022/12/20 04:48:52;;;;;;;0.20;0.20;;;2.80;99.90;;;2.57;100.00;100784.06;4993726;28;20235;-66
2022/12/20 04:51:26;;;;;;;0.10;0.10;;;2.80;99.90;;;2.61;100.00;100792.97;5000799;28;20231;-66
2022/12/20 04:54:00;;;;;;;0.10;0.10;;;2.80;99.90;;;2.59;100.00;100794.56;5009813;28;20672;-66
2022/12/20 04:56:30;;;;;;;0.52;0.52;;;2.80;99.90;;;2.59;100.00;100789.34;5001563;28;20223;-67
2022/12/20 04:58:58;;;;;;;0.10;0.10;;;2.80;99.90;;;2.57;100.00;100791.00;4996400;28;20254;-66
2022/12/20 05:01:26;;;;;;;0.10;0.10;;;2.80;99.90;;;2.53;100.00;100786.47;5008554;28;20243;-66
2022/12/20 05:03:58;;;;;;;0.32;0.32;;;2.80;99.90;;;2.57;100.00;100789.28;4999236;28;20323;-66
2022/12/20 05:06:31;;;;;;;0.10;0.10;;;2.80;99.90;;;2.58;100.00;100785.84;4996457;28;20234;-65
2022/12/20 05:09:03;;;;;;;0.20;0.20;;;2.80;99.90;;;2.57;100.00;100789.28;5011463;28;20306;-70
2022/12/20 05:11:33;;;;;;;0.15;0.15;;;2.80;99.90;;;2.53;100.00;100787.34;5010427;28;20234;-66
2022/12/20 05:14:00;;;;;;;0.10;0.10;;;2.80;99.90;;;2.56;100.00;100795.34;5011726;28;20741;-66
2022/12/20 05:16:27;;;;;;;0.10;0.10;;;2.80;99.90;;;2.54;100.00;100783.03;5017528;28;20235;-66
2022/12/20 05:18:54;;;;;;;0.10;0.10;;;2.80;99.90;;;2.52;100.00;100782.06;5011823;28;20288;-66
2022/12/20 05:27:00;;;;;;;0.10;0.10;;;2.70;99.90;;;2.46;100.00;100787.00;5019476;28;20231;-66
2022/12/20 05:29:31;;;;;;;0.55;0.47;;;2.70;99.90;;;2.45;100.00;100780.88;4951989;28;20266;-68
2022/12/20 05:31:59;;;;;;;0.10;0.10;;;2.70;99.90;;;2.41;100.00;100776.34;4992394;28;20240;-66
2022/12/20 05:34:26;;;;;;;0.17;0.17;;;2.70;99.90;;;2.40;100.00;100766.72;5011364;28;20254;-66
2022/12/20 05:36:53;;;;;;;0.20;0.20;;;2.60;99.90;;;2.42;100.00;100769.41;5007520;28;20306;-66
2022/12/20 05:39:20;;;;;;;0.35;0.35;;;2.60;99.90;;;2.43;100.00;100768.59;5030997;28;20234;-67
2022/12/20 05:41:47;;;;;;;0.10;0.10;;;2.60;99.90;;;2.41;100.00;100768.50;4992436;28;20234;-66
2022/12/20 05:44:15;;;;;;;0.10;0.10;;;2.60;99.90;;;2.42;100.00;100775.50;5005492;28;20238;-66
2022/12/20 05:46:42;;;;;;;0.20;0.20;;;2.60;99.90;;;2.41;100.00;100759.78;5013107;28;20304;-68
2022/12/20 05:49:11;;;;;;;0.30;0.30;;;2.60;99.90;;;2.42;100.00;100767.69;4991878;28;20236;-66
2022/12/20 05:51:38;;;;;;;0.10;0.10;;;2.60;99.90;;;2.43;100.00;100766.88;4999980;28;20238;-72
2022/12/20 05:54:05;;;;;;;0.98;0.98;;;2.60;99.90;;;2.44;100.00;100763.44;5026343;28;20277;-71
2022/12/20 05:56:32;;;;;;;0.10;0.10;;;2.60;99.90;;;2.43;100.00;100763.38;5010441;28;20228;-71
2022/12/20 05:58:59;;;;;;;0.10;0.10;;;2.70;99.90;;;2.44;100.00;100765.16;4994990;28;20242;-69
2022/12/20 06:01:27;;;;;;;0.35;0.35;;;2.60;99.90;;;2.43;100.00;100759.03;5018279;28;20235;-70
2022/12/20 06:03:54;;;;;;;0.10;0.10;;;2.60;99.90;;;2.42;100.00;100758.97;5016141;28;20273;-69
2022/12/20 06:06:21;;;;;;;0.20;0.20;;;2.60;99.90;;;2.39;100.00;100751.00;5008422;28;20664;-71
2022/12/20 06:08:48;;;;;;;0.10;0.10;;;2.60;99.90;;;2.41;100.00;100750.25;5014608;28;20315;-68
2022/12/20 06:11:15;;;;;;;0.10;0.10;;;2.60;99.90;;;2.42;100.00;100758.97;5022125;23;20236;-75
2022/12/20 06:13:42;;;;;;;0.10;0.10;;;3.40;99.90;;;2.43;100.00;100753.81;4981007;28;20224;-75
2022/12/20 06:16:09;;;;;;;0.28;0.28;;;3.00;99.90;;;2.41;100.00;100746.75;4985177;28;20229;-75
2022/12/20 06:18:37;;;;;;;0.10;0.10;;;3.70;99.90;;;2.42;100.00;100738.97;4987113;28;20243;-75
2022/12/20 06:21:04;;;;;;;0.10;0.10;;;2.60;99.90;;;2.39;100.00;100745.78;4984705;28;20256;-76
2022/12/20 06:23:31;;;;;;;0.25;0.25;;;2.60;99.90;;;2.44;100.00;100744.28;4984826;28;20244;-76
2022/12/20 06:25:58;;;;;;;0.10;0.10;;;2.60;99.90;;;2.45;100.00;100738.22;4985291;28;20232;-75
2022/12/20 06:28:25;;;;;;;0.10;0.10;;;2.70;99.90;;;2.45;100.00;100727.78;4981912;28;20364;-73
2022/12/20 06:30:56;;;;;;;0.10;0.10;;;2.70;99.90;;;2.47;100.00;100724.41;4984146;28;20328;-77
2022/12/20 06:33:24;;;;;;;0.10;0.10;;;2.70;99.90;;;2.47;100.00;100726.13;4990492;28;20232;-75
2022/12/20 06:35:52;;;;;;;0.20;0.20;;;2.70;99.90;;;2.46;100.00;100717.41;4989499;28;20228;-76
2022/12/20 06:38:19;;;;;;;0.65;0.65;;;2.70;99.90;;;2.46;100.00;100714.81;4991447;28;20236;-75
2022/12/20 06:40:46;;;;;;;0.10;0.10;;;2.70;99.90;;;2.46;100.00;100713.91;4988989;28;20256;-75
2022/12/20 06:43:13;;;;;;;0.20;0.20;;;2.90;99.90;;;2.47;100.00;100721.81;4986930;28;20261;-73
2022/12/20 06:45:40;;;;;;;0.10;0.10;;;2.70;99.90;;;2.55;100.00;100730.00;5003948;28;20259;-73
2022/12/20 06:48:09;;;;;;;0.10;0.10;;;2.70;99.90;;;2.60;100.00;100738.03;4987450;28;20240;-74
2022/12/20 06:50:39;;;;;;;0.10;0.10;;;3.10;99.90;;;2.62;100.00;100726.88;5003642;28;20236;-74
2022/12/20 06:53:06;;;;;;;0.10;0.10;;;3.00;99.90;;;2.68;100.00;100737.59;4986633;28;20243;-74
2022/12/20 06:55:34;;;;;;;0.20;0.20;;;2.80;99.90;;;2.72;100.00;100730.78;4997807;28;20233;-74
2022/12/20 06:58:02;;;;;;;0.10;0.10;;;2.90;99.90;;;2.71;100.00;100731.59;4988916;28;20327;-74
2022/12/20 07:00:29;;;;;;;0.30;0.30;;;2.90;99.90;;;2.73;100.00;100730.84;5001257;28;20307;-74
2022/12/20 07:02:56;;;;;;;0.10;0.10;;;3.00;99.90;;;2.72;100.00;100721.22;4989422;28;20319;-74
2022/12/20 07:05:23;;;;;;;0.10;0.10;;;2.90;99.90;;;2.71;100.00;100722.06;4981632;28;20237;-74
2022/12/20 07:07:50;;;;;;;0.10;0.10;;;2.90;99.90;;;2.68;100.00;100715.81;4982434;28;20290;-74
2022/12/20 07:10:17;;;;;;;0.10;0.10;;;2.80;99.90;;;2.75;100.00;100725.69;4985970;28;20270;-73
2022/12/20 07:12:44;;;;;;;0.20;0.20;;;2.90;99.90;;;2.74;100.00;100731.75;4979830;28;20232;-74
2022/12/20 07:15:15;;;;;;;0.25;0.25;;;2.90;99.90;;;2.78;100.00;100741.50;4988478;28;20316;-74
2022/12/20 07:17:43;;;;;;;0.10;0.10;;;2.90;99.90;;;2.80;100.00;100734.63;4982545;28;20234;-74
2022/12/20 07:20:11;;;;;;;0.25;0.25;;;3.00;99.90;;;2.76;100.00;100723.16;4986958;28;20228;-74
2022/12/20 07:22:40;;;;;;;0.15;0.15;;;3.00;99.90;;;2.78;100.00;100715.41;4987820;28;20229;-74
2022/12/20 07:25:09;;;;;;;0.25;0.25;;;3.00;99.90;;;2.84;100.00;100721.78;4989776;28;20232;-74
2022/12/20 07:27:36;;;;;;;0.10;0.10;;;2.90;99.90;;;2.80;100.00;100711.13;4981373;28;20229;-74
2022/12/20 07:30:04;;;;;;;0.30;0.30;;;3.00;99.90;;;2.82;100.00;100730.38;4987776;28;20232;-74
2022/12/20 07:32:31;;;;;;;0.10;0.10;;;3.00;99.90;;;2.86;100.00;100742.75;4984055;28;20239;-73
2022/12/20 07:34:58;;;;;;;0.10;0.10;;;3.00;99.90;;;2.91;100.00;100736.00;4988795;28;20231;-74
2022/12/20 07:37:28;;;;;;;0.35;0.35;;;3.10;99.90;;;2.88;100.00;100734.16;4990115;28;20228;-74
2022/12/20 07:39:55;;;;;;;0.20;0.20;;;3.10;99.90;;;2.84;100.00;100723.50;4988801;28;20232;-74
2022/12/20 07:42:23;;;;;;;0.10;0.10;;;3.00;99.90;;;2.85;100.00;100715.72;4988182;28;20379;-74
2022/12/20 07:45:01;;;;;;;0.95;0.95;;;3.00;99.90;;;2.88;100.00;100726.31;4982255;28;20263;-74
2022/12/20 07:47:28;;;;;;;0.10;0.10;;;3.10;99.90;;;2.89;100.00;100724.59;4986249;28;20225;-74
2022/12/20 07:49:55;;;;;;;0.00;0.00;;;3.10;99.90;;;2.93;100.00;100733.47;4988999;28;20233;-74
2022/12/20 07:52:25;;;;;;;0.10;0.10;;;3.10;99.90;;;2.93;100.00;100723.00;4988288;28;20235;-74
2022/12/20 07:55:02;;;;;;;0.10;0.10;;;3.10;99.90;;;2.92;100.00;100702.94;4988407;28;20290;-74
2022/12/20 07:57:36;;;;;;;0.40;0.40;;;3.30;99.90;;;2.95;100.00;100709.19;4987482;28;20593;-74
2022/12/20 08:00:06;;;;;;;0.20;0.20;;;3.10;99.90;;;3.00;100.00;100714.63;4994564;28;20241;-74
2022/12/20 08:02:56;;;;;;;0.10;0.10;;;3.20;99.90;;;3.00;100.00;100714.63;4988634;28;20294;-73
2022/12/20 08:05:23;;;;;;;0.00;0.00;;;3.20;99.90;;;3.03;100.00;100706.91;4981865;28;20232;-74
2022/12/20 08:07:53;;;;;;;0.10;0.10;;;3.20;99.90;;;3.03;100.00;100697.34;5002923;28;20248;-74
2022/12/20 08:10:26;;;;;;;0.10;0.10;;;3.20;99.90;;;2.99;100.00;100685.00;4986587;28;20235;-75
2022/12/20 08:12:54;;;;;;;0.13;0.13;;;3.20;99.90;;;2.99;100.00;100690.22;4987765;28;20243;-73
2022/12/20 08:15:22;;;;;;;0.30;0.30;;;3.20;99.90;;;3.00;100.00;100685.88;4998257;28;20228;-73
2022/12/20 08:17:49;;;;;;;0.10;0.10;;;3.10;99.90;;;3.03;100.00;100680.78;4985663;28;20248;-73
2022/12/20 08:20:17;;;;;;;0.10;0.10;;;3.10;99.90;;;3.07;100.00;100688.81;4985097;28;20667;-73
2022/12/20 08:22:44;;;;;;;0.10;0.10;;;3.20;99.90;;;3.09;100.00;100700.22;5003195;28;20220;-74
2022/12/20 08:25:11;;;;;;;0.10;0.10;;;3.30;99.90;;;3.14;100.00;100697.81;4982438;28;20232;-74
2022/12/20 08:27:38;;;;;;;0.10;0.10;;;3.30;99.90;;;3.19;100.00;100699.78;4978696;28;20233;-74
2022/12/20 08:30:07;;;;;;;0.10;0.10;;;3.40;99.90;;;3.22;100.00;100696.41;4990062;28;20315;-74
2022/12/20 08:32:36;;;;;;;0.63;0.63;;;3.40;99.90;;;3.27;100.00;100701.84;4978303;28;20361;-74
2022/12/20 08:35:04;;;;;;;0.10;0.10;;;3.40;99.90;;;3.31;100.00;100704.66;4964849;28;20260;-74
2022/12/20 08:37:31;;;;;;;1.00;0.98;;;3.50;99.90;;;3.30;100.00;100696.75;4969918;28;20291;-74
2022/12/20 08:39:59;;;;;;;0.10;0.10;;;3.50;99.90;;;3.31;100.00;100683.75;4983581;28;20239;-74
2022/12/20 08:42:27;;;;;;;0.10;0.10;;;3.50;99.90;;;3.34;100.00;100680.34;4989641;28;20271;-74
2022/12/20 08:44:55;;;;;;;0.10;0.10;;;3.50;99.90;;;3.38;100.00;100680.56;4978875;28;20499;-74
2022/12/20 08:47:22;;;;;;;0.10;0.10;;;3.80;99.90;;;3.41;100.00;100670.22;4987436;28;20290;-74
2022/12/20 08:49:49;;;;;;;0.10;0.10;;;3.60;99.90;;;3.49;100.00;100678.38;4983505;28;20306;-74
2022/12/20 08:52:16;;;;;;;0.30;0.30;;;3.60;99.90;;;3.54;100.00;100672.50;4986721;28;20240;-74
2022/12/20 08:54:43;;;;;;;0.30;0.30;;;3.70;99.90;;;3.61;100.00;100676.25;4981340;28;20228;-74
2022/12/20 08:57:10;;;;;;;0.32;0.32;;;3.80;99.90;;;3.64;100.00;100678.13;4981824;28;20228;-74
2022/12/20 08:59:38;;;;;;;0.10;0.10;;;3.80;99.90;;;3.70;100.00;100694.94;4984676;28;20259;-74
2022/12/20 09:02:05;;;;;;;0.10;0.10;;;3.80;99.90;;;3.67;100.00;100680.84;4986118;28;20251;-74
2022/12/20 09:04:32;;;;;;;0.10;0.10;;;3.90;99.90;;;3.71;100.00;100693.22;4989200;28;20235;-74
2022/12/20 09:07:00;;;;;;;0.10;0.10;;;3.90;99.90;;;3.73;100.00;100687.22;4989302;28;20286;-74
2022/12/20 09:09:27;;;;;;;0.10;0.10;;;3.90;99.90;;;3.77;100.00;100688.25;4980355;28;20350;-74
2022/12/20 09:11:54;;;;;;;0.10;0.10;;;4.00;99.90;;;3.81;100.00;100682.28;4981979;28;20275;-74
2022/12/20 09:14:21;;;;;;;0.25;0.25;;;4.10;99.90;;;3.85;100.00;100684.19;4983579;28;20228;-74
2022/12/20 09:16:48;;;;;;;0.10;0.10;;;4.10;99.90;;;3.90;100.00;100689.63;4989502;28;20314;-74
2022/12/20 09:19:16;;;;;;;0.55;0.55;;;4.20;99.90;;;3.98;100.00;100696.97;4999437;28;20303;-75
2022/12/20 09:21:43;;;;;;;0.10;0.10;;;4.30;99.90;;;4.08;100.00;100691.25;4989155;28;20294;-75
2022/12/20 09:24:10;;;;;;;0.10;0.10;;;4.20;99.90;;;4.19;100.00;100686.44;4991026;28;20241;-74
2022/12/20 09:26:39;;;;;;;0.00;0.00;;;4.30;99.90;;;4.28;100.00;100697.25;4992028;28;20232;-74
2022/12/20 09:29:06;;;;;;;0.10;0.10;;;4.40;99.90;;;4.38;100.00;100694.16;4991220;28;20228;-74
2022/12/20 09:31:33;;;;;;;0.10;0.10;;;4.50;99.90;;;4.30;100.00;100682.50;4990386;28;20282;-74
2022/12/20 09:34:01;;;;;;;0.10;0.10;;;4.40;99.90;;;4.44;100.00;100686.53;4991005;28;20256;-74
2022/12/20 09:36:29;;;;;;;0.10;0.10;;;4.50;99.90;;;4.51;100.00;100687.66;4991740;28;20235;-74
2022/12/20 09:38:56;;;;;;;0.10;0.10;;;4.60;99.90;;;4.60;100.00;100687.09;4990283;28;20232;-74
2022/12/20 09:41:43;;;;;;;0.35;0.35;;;4.90;99.90;;;4.63;100.00;100684.59;4981810;28;20291;-74
2022/12/20 09:44:19;;;;;;;0.20;0.20;;;4.70;99.90;;;4.49;100.00;100665.75;4986243;28;20279;-74
2022/12/20 09:47:04;;;;;;;0.85;0.85;;;4.70;99.90;;;4.51;100.00;100664.09;4980097;28;20231;-74
2022/12/20 09:49:41;;;;;;;0.28;0.28;;;4.70;99.90;;;4.53;100.00;100659.81;5000822;28;20256;-74
2022/12/20 09:52:42;;;;;;;0.10;0.10;;;4.70;99.90;;;4.61;100.00;100660.97;4984417;28;20254;-74
2022/12/20 09:55:46;;;;;;;0.10;0.10;;;4.70;99.90;;;4.64;100.00;100663.69;4986439;28;20298;-74
2022/12/20 09:58:38;;;;;;;0.10;0.10;;;4.80;99.90;;;4.71;100.00;100657.84;4987093;28;20306;-74
2022/12/20 10:01:26;;;;;;;0.10;0.10;;;4.80;99.90;;;4.73;100.00;100643.06;4986492;28;20279;-74
2022/12/20 10:04:21;;;;;;;0.50;0.50;;;4.90;99.90;;;4.73;100.00;100635.22;4982699;28;20581;-75
2022/12/20 10:07:02;;;;;;;0.10;0.10;;;4.90;99.90;;;4.77;100.00;100636.22;4983124;28;20230;-74
2022/12/20 10:09:29;;;;;;;0.10;0.10;;;4.90;99.90;;;4.83;100.00;100636.44;4981056;28;20232;-74
2022/12/20 10:11:58;;;;;;;0.10;0.10;;;5.00;99.90;;;4.77;100.00;100625.75;4988150;28;20236;-74
2022/12/20 10:15:06;;;;;;;0.80;0.80;;;5.00;99.90;;;4.76;100.00;100640.56;4990815;28;20224;-74
2022/12/20 10:18:20;;;;;;;0.30;0.30;;;4.90;99.90;;;4.83;100.00;100642.56;5003899;28;20228;-74
2022/12/20 10:21:07;;;;;;;0.20;0.20;;;5.00;99.90;;;5.04;100.00;100659.88;4969035;28;20238;-74
2022/12/20 10:24:02;;;;;;;0.10;0.10;;;5.10;99.90;;;4.99;100.00;100654.47;5009111;28;20237;-74
2022/12/20 10:26:32;;;;;;;0.38;0.38;;;5.20;99.90;;;5.06;100.00;100652.94;4987987;28;20286;-74
2022/12/20 10:28:59;;;;;;;0.30;0.30;;;5.20;99.90;;;5.19;100.00;100660.41;4990642;28;20228;-74
2022/12/20 10:31:27;;;;;;;0.20;0.20;;;5.30;99.90;;;5.30;100.00;100645.06;4988436;28;20232;-75
2022/12/20 10:33:54;;;;;;;0.20;0.20;;;5.40;99.90;;;5.39;100.00;100651.50;4983698;28;20276;-74
2022/12/20 10:36:34;;;;;;;0.47;0.47;;;5.50;99.90;;;5.52;100.00;100652.78;4997945;28;20290;-75
2022/12/20 10:39:08;;;;;;;0.10;0.10;;;5.70;99.90;;;5.59;100.00;100660.03;4987605;28;20596;-75
2022/12/20 10:41:43;;;;;;;4.47;1.17;;;6.00;99.90;;;5.67;100.00;100649.78;4990119;28;20298;-75
2022/12/20 10:44:26;;;;;;;0.15;0.15;;;5.80;99.90;;;5.70;100.00;100647.25;5010535;28;20246;-75
2022/12/20 10:47:00;;;;;;;1.02;0.98;;;5.80;99.90;;;5.67;100.00;100634.03;4988887;28;20275;-75